Flight Track Log - Related Links

Times and Time Zones

All times are in EDT time to prevent confusion due to time zone crossing. See the CTL17 flight status page for this flight to view local times or setup timezone preferences in your user account.


Time Position Orientation Groundspeed Altitude Reporting Facility
EDT Latitude Longitude Course Direction KTS MPH feet Rate Location/Type
Wed 04:50:00 PM 43.3619 -84.0057 160° South  Level Estimated
Wed 04:51:00 PM 43.3366 -83.9838 148° Southeast  Level FlightAware Approximate
Wed 04:52:00 PM 43.3080 -83.9718 160° South  Level Estimated
Wed 04:53:00 PM 43.2807 -83.9553 156° South  Level FlightAware Approximate
Wed 04:54:00 PM 43.2533 -83.9388 156° South  Level FlightAware Approximate
Wed 04:55:00 PM 43.2121 -83.9147 163° South  Level FlightAware Approximate
Wed 04:56:00 PM 43.1695 -83.8964 163° South  Level FlightAware Approximate
Wed 04:57:00 PM 43.1269 -83.8782 163° South  Level FlightAware Approximate
Wed 04:58:00 PM 43.0845 -83.8589 160° South  Level FlightAware Approximate
Wed 04:58:46 PM 42.9489 -83.7969 160° South 163 188 4,000  Level Cleveland Center
Wed 04:59:00 PM 43.0425 -83.8378 160° South  Level FlightAware Approximate
Wed 04:59:41 PM 42.9142 -83.7753 155° Southeast 163 188 4,000  Level Cleveland Center
Wed 05:00:00 PM 43.0006 -83.8168 160° South  Level FlightAware Approximate
Wed 05:01:00 PM 42.8591 -83.7471 159° South  Level FlightAware Approximate
Wed 05:01:00 PM 42.9586 -83.7958 160° South  Level FlightAware Approximate
Wed 05:01:43 PM 42.8256 -83.7397 159° South 162 186 4,000  Level Cleveland Center
Wed 05:02:00 PM 42.9167 -83.7749 160° South  Level FlightAware Approximate
Wed 05:02:44 PM 42.7781 -83.7231 166° South 164 189 4,100  Level Cleveland Center
Wed 05:03:00 PM 42.8747 -83.7540 160° South  Level FlightAware Approximate
Wed 05:03:33 PM 42.7450 -83.7131 167° South 164 189 4,000  Level Cleveland Center
Wed 05:04:00 PM 42.8328 -83.7331 160° South  Level FlightAware Approximate
Wed 05:04:39 PM 42.6933 -83.6936 165° South 165 190 3,800  Level Cleveland Center
Wed 05:05:40 PM 42.6478 -83.6800 168° South 176 203 3,200 -393 Descending Cleveland Center
Wed 05:06:41 PM 42.6003 -83.6608 163° South 167 192 3,000 -98 Descending Cleveland Center
Wed 05:07:42 PM 42.5592 -83.6475 167° South 156 180 3,000  Level Cleveland Center
Wed 05:08:43 PM 42.5136 -83.6311 165° South 158 182 3,000  Level Cleveland Center
Wed 05:09:50 PM 42.4703 -83.6122 162° South 155 178 3,000 49 Level Cleveland Center
Wed 05:10:45 PM 42.4331 -83.5992 165° South 153 176 3,100 -103 Climbing Cleveland Center
Wed 05:11:46 PM 42.3878 -83.5772 160° South 159 183 2,800 -492 Descending Cleveland Center
Wed 05:12:47 PM 42.3425 -83.5583 163° South 171 197 2,100 -545 Descending Cleveland Center
Wed 05:13:36 PM 42.3117 -83.5428 160° South 164 189 1,800 -385 Descending Cleveland Center
Wed 05:14:36 PM 42.2703 -83.5267 164° South 135 155 1,400 -400 Descending Cleveland Center
Wed 05:16:00 PM 42.2333 -83.5167 160° South  Level FlightAware Approximate
Wed 05:23:00 PM 42.2393 -83.5310 160° South  Level Estimated
Wed 05:24:00 PM 42.2393 -83.5310 160° South  Level Estimated

Login

Don't have an account? Register now (free) for customized features, flight alerts, and more!